Time,TemperatureF,DewpointF,PressureIn,WindDirection,WindDirectionDegrees,WindSpeedMPH,WindSpeedGustMPH,Humidity,HourlyPrecipIn,Conditions,Clouds,dailyrainin,SoftwareType,DateUTC
2013-10-28 14:11:00,54.0,35.0,29.70,WSW,248,8.0,16.0,48,0.00,,,0.00,,2013-10-28 21:11:00,
2013-10-28 14:21:00,54.0,35.0,29.70,WSW,248,8.0,16.0,48,0.00,,,0.00,,2013-10-28 21:21:00,
2013-10-28 14:43:00,54.0,33.0,29.73,WNW,297,2.0,13.0,44,0.00,,,0.00,,2013-10-28 21:43:00,
2013-10-28 14:54:00,55.0,32.0,29.72,West,274,0.0,12.0,42,0.00,,,0.00,,2013-10-28 21:54:00,
2013-10-28 15:23:00,53.0,37.0,29.72,South,175,3.0,20.0,55,0.00,,,0.00,,2013-10-28 22:23:00,
2013-10-28 15:53:00,53.0,38.0,29.73,South,178,10.0,15.0,56,0.00,,,0.00,,2013-10-28 22:53:00,
2013-10-28 16:22:00,53.0,39.0,29.74,SSW,200,9.0,18.0,60,0.00,,,0.00,,2013-10-28 23:22:00,
2013-10-28 16:42:00,52.0,39.0,29.72,SSW,213,4.0,15.0,62,0.00,,,0.00,,2013-10-28 23:42:00,
2013-10-28 16:52:00,51.0,39.0,29.73,SW,234,13.0,20.0,64,0.00,,,0.00,,2013-10-28 23:52:00,
2013-10-28 17:21:00,49.0,41.0,29.75,SSW,208,9.0,18.0,74,0.03,,,0.03,,2013-10-29 00:21:00,
2013-10-28 17:41:00,49.0,42.0,29.75,SSW,205,6.0,12.0,76,0.03,,,0.03,,2013-10-29 00:41:00,
2013-10-28 17:52:00,49.0,42.0,29.75,South,190,11.0,15.0,76,0.03,,,0.03,,2013-10-29 00:52:00,
2013-10-28 18:11:00,48.0,40.0,29.75,South,177,12.0,18.0,75,0.03,,,0.03,,2013-10-29 01:11:00,
2013-10-28 18:21:00,48.0,41.0,29.76,SSW,202,3.0,20.0,77,0.04,,,0.07,,2013-10-29 01:21:00,
2013-10-28 18:42:00,48.0,41.0,29.77,SW,217,3.0,11.0,78,0.04,,,0.07,,2013-10-29 01:42:00,
2013-10-28 18:52:00,48.0,42.0,29.77,SSW,200,7.0,12.0,79,0.08,,,0.11,,2013-10-29 01:52:00,
2013-10-28 19:11:00,47.0,41.0,29.78,SSW,192,11.0,17.0,79,0.08,,,0.11,,2013-10-29 02:11:00,
2013-10-28 19:21:00,47.0,41.0,29.79,South,180,8.0,11.0,80,0.04,,,0.11,,2013-10-29 02:21:00,
2013-10-28 19:44:00,47.0,41.0,29.79,SSW,196,1.0,11.0,80,0.04,,,0.11,,2013-10-29 02:44:00,
2013-10-28 19:53:00,47.0,41.0,29.80,WNW,282,0.0,9.0,80,0.01,,,0.12,,2013-10-29 02:53:00,
2013-10-28 20:14:00,47.0,41.0,29.80,WSW,245,2.0,4.0,81,0.01,,,0.12,,2013-10-29 03:14:00,
2013-10-28 20:27:00,47.0,41.0,29.80,West,269,1.0,6.0,79,0.02,,,0.13,,2013-10-29 03:27:00,
2013-10-28 20:40:00,-999.0,-99.9,29.80,West,267,4.0,8.0,79,0.02,,,0.13,,2013-10-29 03:40:00,
2013-10-28 20:47:00,47.0,41.0,29.80,West,267,4.0,8.0,79,0.02,,,0.13,,2013-10-29 03:47:00,
2013-10-28 20:55:00,46.0,42.0,29.80,WSW,238,4.0,13.0,86,0.02,,,0.14,,2013-10-29 03:55:00,
2013-10-28 21:13:00,46.0,41.0,29.80,SW,226,5.0,11.0,82,0.02,,,0.14,,2013-10-29 04:13:00,
2013-10-28 21:24:00,46.0,41.0,29.80,SW,232,5.0,7.0,82,0.01,,,0.14,,2013-10-29 04:24:00,
2013-10-28 21:43:00,46.0,41.0,29.80,SW,229,1.0,7.0,82,0.01,,,0.14,,2013-10-29 04:43:00,
2013-10-28 21:57:00,46.0,41.0,29.80,SW,229,4.0,6.0,82,0.00,,,0.14,,2013-10-29 04:57:00,
2013-10-28 22:18:00,46.0,41.0,29.80,WSW,248,0.0,7.0,83,0.01,,,0.15,,2013-10-29 05:18:00,
2013-10-28 22:45:00,46.0,41.0,29.83,SW,221,1.0,6.0,82,0.01,,,0.15,,2013-10-29 05:45:00,
2013-10-28 22:52:00,46.0,41.0,29.84,SW,221,0.0,0.0,82,0.01,,,0.15,,2013-10-29 05:52:00,
2013-10-28 23:16:00,46.0,41.0,29.85,SW,221,0.0,0.0,81,0.00,,,0.15,,2013-10-29 06:16:00,
2013-10-28 23:25:00,46.0,41.0,29.85,SW,221,0.0,0.0,81,0.00,,,0.15,,2013-10-29 06:25:00,
2013-10-28 23:43:00,46.0,41.0,29.85,SW,221,0.0,0.0,82,0.00,,,0.15,,2013-10-29 06:43:00,
2013-10-28 23:52:00,46.0,41.0,29.85,South,180,0.0,0.0,82,0.00,,,0.15,,2013-10-29 06:52:00,